sensor_id;sensor_type;location;lat;lon;timestamp;P1;durP1;ratioP1;P2;durP2;ratioP2
65279;SDS011;51878;55.748;48.742;2024-03-23T00:57:10;9.13;;;4.63;;
65279;SDS011;51878;55.748;48.742;2024-03-23T01:02:12;9.63;;;3.15;;
65279;SDS011;51878;55.748;48.742;2024-03-23T01:07:13;9.65;;;3.63;;
65279;SDS011;51878;55.748;48.742;2024-03-23T01:12:14;8.73;;;3.80;;
65279;SDS011;51878;55.748;48.742;2024-03-23T01:17:16;5.07;;;3.35;;
65279;SDS011;51878;55.748;48.742;2024-03-23T01:22:17;9.80;;;4.38;;
65279;SDS011;51878;55.748;48.742;2024-03-23T01:27:18;7.15;;;4.10;;
65279;SDS011;51878;55.748;48.742;2024-03-23T01:32:20;13.27;;;4.20;;
65279;SDS011;51878;55.748;48.742;2024-03-23T01:37:21;23.75;;;3.85;;
65279;SDS011;51878;55.748;48.742;2024-03-23T01:42:22;7.15;;;3.85;;
65279;SDS011;51878;55.748;48.742;2024-03-23T01:47:23;8.27;;;3.65;;
65279;SDS011;51878;55.748;48.742;2024-03-23T01:52:25;17.67;;;3.90;;
65279;SDS011;51878;55.748;48.742;2024-03-23T01:57:28;3.40;;;2.78;;
65279;SDS011;51878;55.748;48.742;2024-03-23T02:02:29;6.75;;;3.83;;
65279;SDS011;51878;55.748;48.742;2024-03-23T02:07:30;13.68;;;4.07;;
65279;SDS011;51878;55.748;48.742;2024-03-23T02:12:31;6.95;;;3.00;;
65279;SDS011;51878;55.748;48.742;2024-03-23T02:17:33;6.97;;;3.85;;
65279;SDS011;51878;55.748;48.742;2024-03-23T02:22:36;9.77;;;4.07;;
65279;SDS011;51878;55.748;48.742;2024-03-23T02:27:37;12.45;;;4.53;;
65279;SDS011;51878;55.748;48.742;2024-03-23T02:32:40;13.23;;;5.28;;
65279;SDS011;51878;55.748;48.742;2024-03-23T02:37:41;12.23;;;3.42;;
65279;SDS011;51878;55.748;48.742;2024-03-23T02:42:43;13.00;;;3.67;;
65279;SDS011;51878;55.748;48.742;2024-03-23T02:47:44;7.53;;;4.18;;
65279;SDS011;51878;55.748;48.742;2024-03-23T02:52:45;9.20;;;4.30;;
65279;SDS011;51878;55.748;48.742;2024-03-23T02:57:49;10.52;;;4.82;;
65279;SDS011;51878;55.748;48.742;2024-03-23T03:02:50;9.82;;;4.50;;
65279;SDS011;51878;55.748;48.742;2024-03-23T03:07:52;6.30;;;4.50;;
65279;SDS011;51878;55.748;48.742;2024-03-23T03:12:55;18.73;;;3.08;;
65279;SDS011;51878;55.748;48.742;2024-03-23T03:17:56;9.75;;;4.45;;
65279;SDS011;51878;55.748;48.742;2024-03-23T03:22:57;16.13;;;4.55;;
65279;SDS011;51878;55.748;48.742;2024-03-23T03:27:58;10.88;;;3.83;;
65279;SDS011;51878;55.748;48.742;2024-03-23T03:33:00;7.38;;;3.75;;
65279;SDS011;51878;55.748;48.742;2024-03-23T03:38:01;8.77;;;3.67;;
65279;SDS011;51878;55.748;48.742;2024-03-23T03:43:02;7.15;;;4.10;;
65279;SDS011;51878;55.748;48.742;2024-03-23T03:48:03;9.55;;;4.00;;
65279;SDS011;51878;55.748;48.742;2024-03-23T03:53:05;7.45;;;3.03;;
65279;SDS011;51878;55.748;48.742;2024-03-23T03:58:06;6.10;;;3.38;;
65279;SDS011;51878;55.748;48.742;2024-03-23T04:03:07;10.55;;;4.10;;
65279;SDS011;51878;55.748;48.742;2024-03-23T04:08:08;8.32;;;4.65;;
65279;SDS011;51878;55.748;48.742;2024-03-23T04:13:09;6.95;;;4.18;;
65279;SDS011;51878;55.748;48.742;2024-03-23T04:18:10;13.73;;;4.88;;
65279;SDS011;51878;55.748;48.742;2024-03-23T04:23:11;6.63;;;3.60;;
65279;SDS011;51878;55.748;48.742;2024-03-23T04:28:12;6.18;;;3.83;;
65279;SDS011;51878;55.748;48.742;2024-03-23T04:33:13;4.57;;;3.42;;
65279;SDS011;51878;55.748;48.742;2024-03-23T04:38:15;6.18;;;3.80;;
65279;SDS011;51878;55.748;48.742;2024-03-23T04:43:17;7.38;;;4.45;;
65279;SDS011;51878;55.748;48.742;2024-03-23T04:48:23;12.95;;;4.10;;
65279;SDS011;51878;55.748;48.742;2024-03-23T04:53:25;9.27;;;3.97;;
65279;SDS011;51878;55.748;48.742;2024-03-23T04:58:29;9.18;;;4.47;;
65279;SDS011;51878;55.748;48.742;2024-03-23T05:03:30;12.45;;;4.38;;
65279;SDS011;51878;55.748;48.742;2024-03-23T05:08:31;7.10;;;3.80;;
65279;SDS011;51878;55.748;48.742;2024-03-23T05:13:32;9.38;;;4.05;;
65279;SDS011;51878;55.748;48.742;2024-03-23T05:18:33;12.75;;;5.07;;
65279;SDS011;51878;55.748;48.742;2024-03-23T05:23:35;9.93;;;4.45;;
65279;SDS011;51878;55.748;48.742;2024-03-23T05:28:36;8.98;;;4.25;;
65279;SDS011;51878;55.748;48.742;2024-03-23T05:33:37;5.80;;;3.35;;
65279;SDS011;51878;55.748;48.742;2024-03-23T05:38:38;8.82;;;4.85;;
65279;SDS011;51878;55.748;48.742;2024-03-23T05:43:40;5.15;;;2.80;;
65279;SDS011;51878;55.748;48.742;2024-03-23T05:48:41;6.82;;;3.38;;
65279;SDS011;51878;55.748;48.742;2024-03-23T05:53:42;8.07;;;3.40;;
65279;SDS011;51878;55.748;48.742;2024-03-23T05:58:43;8.55;;;3.92;;
65279;SDS011;51878;55.748;48.742;2024-03-23T06:03:44;6.97;;;3.35;;
65279;SDS011;51878;55.748;48.742;2024-03-23T06:08:45;5.85;;;3.65;;
65279;SDS011;51878;55.748;48.742;2024-03-23T06:13:46;9.88;;;4.00;;
65279;SDS011;51878;55.748;48.742;2024-03-23T06:18:47;8.27;;;3.78;;
65279;SDS011;51878;55.748;48.742;2024-03-23T06:23:50;9.32;;;3.92;;
65279;SDS011;51878;55.748;48.742;2024-03-23T06:28:53;6.60;;;3.45;;
65279;SDS011;51878;55.748;48.742;2024-03-23T06:33:55;6.85;;;4.43;;
65279;SDS011;51878;55.748;48.742;2024-03-23T06:38:56;4.88;;;3.00;;
65279;SDS011;51878;55.748;48.742;2024-03-23T06:43:57;9.02;;;3.75;;
65279;SDS011;51878;55.748;48.742;2024-03-23T06:48:58;6.65;;;3.97;;
65279;SDS011;51878;55.748;48.742;2024-03-23T06:53:59;5.78;;;4.05;;
65279;SDS011;51878;55.748;48.742;2024-03-23T06:59:00;8.57;;;4.28;;
65279;SDS011;51878;55.748;48.742;2024-03-23T07:04:02;9.57;;;4.15;;
65279;SDS011;51878;55.748;48.742;2024-03-23T07:09:04;9.88;;;4.30;;
65279;SDS011;51878;55.748;48.742;2024-03-23T07:14:05;6.40;;;3.75;;
65279;SDS011;51878;55.748;48.742;2024-03-23T07:19:06;5.07;;;3.35;;
65279;SDS011;51878;55.748;48.742;2024-03-23T07:24:08;6.00;;;3.13;;
65279;SDS011;51878;55.748;48.742;2024-03-23T07:29:09;8.25;;;3.72;;
65279;SDS011;51878;55.748;48.742;2024-03-23T07:34:10;6.88;;;3.05;;
65279;SDS011;51878;55.748;48.742;2024-03-23T07:39:11;6.97;;;3.47;;
65279;SDS011;51878;55.748;48.742;2024-03-23T07:44:13;8.05;;;4.03;;
65279;SDS011;51878;55.748;48.742;2024-03-23T07:49:14;7.95;;;3.55;;
65279;SDS011;51878;55.748;48.742;2024-03-23T07:54:15;5.75;;;3.55;;
65279;SDS011;51878;55.748;48.742;2024-03-23T07:59:16;6.68;;;2.85;;
65279;SDS011;51878;55.748;48.742;2024-03-23T08:04:19;4.80;;;3.20;;
65279;SDS011;51878;55.748;48.742;2024-03-23T08:09:20;8.02;;;3.67;;
65279;SDS011;51878;55.748;48.742;2024-03-23T08:14:21;8.95;;;3.53;;
65279;SDS011;51878;55.748;48.742;2024-03-23T08:19:22;8.65;;;3.35;;
65279;SDS011;51878;55.748;48.742;2024-03-23T08:24:23;6.05;;;3.30;;
65279;SDS011;51878;55.748;48.742;2024-03-23T08:29:24;8.30;;;3.80;;
65279;SDS011;51878;55.748;48.742;2024-03-23T08:34:26;6.13;;;3.38;;
65279;SDS011;51878;55.748;48.742;2024-03-23T08:39:27;6.72;;;3.78;;
65279;SDS011;51878;55.748;48.742;2024-03-23T08:44:28;7.65;;;3.80;;
65279;SDS011;51878;55.748;48.742;2024-03-23T08:49:29;5.03;;;3.50;;
65279;SDS011;51878;55.748;48.742;2024-03-23T08:54:30;5.50;;;3.13;;
65279;SDS011;51878;55.748;48.742;2024-03-23T08:59:32;7.03;;;3.88;;
65279;SDS011;51878;55.748;48.742;2024-03-23T09:04:33;10.13;;;4.00;;
65279;SDS011;51878;55.748;48.742;2024-03-23T09:09:37;9.68;;;3.55;;
65279;SDS011;51878;55.748;48.742;2024-03-23T09:14:40;8.38;;;3.70;;
65279;SDS011;51878;55.748;48.742;2024-03-23T09:19:41;5.40;;;3.80;;
65279;SDS011;51878;55.748;48.742;2024-03-23T09:24:42;9.77;;;3.80;;
65279;SDS011;51878;55.748;48.742;2024-03-23T09:29:43;11.98;;;4.88;;
65279;SDS011;51878;55.748;48.742;2024-03-23T09:34:46;6.60;;;3.95;;
65279;SDS011;51878;55.748;48.742;2024-03-23T09:39:47;7.60;;;4.07;;
65279;SDS011;51878;55.748;48.742;2024-03-23T09:44:48;7.63;;;4.18;;
65279;SDS011;51878;55.748;48.742;2024-03-23T09:49:51;6.88;;;4.18;;
65279;SDS011;51878;55.748;48.742;2024-03-23T09:54:53;5.50;;;3.70;;
65279;SDS011;51878;55.748;48.742;2024-03-23T09:59:54;7.07;;;3.85;;
65279;SDS011;51878;55.748;48.742;2024-03-23T10:04:57;7.35;;;3.63;;
65279;SDS011;51878;55.748;48.742;2024-03-23T10:09:59;9.27;;;3.72;;
65279;SDS011;51878;55.748;48.742;2024-03-23T10:15:15;5.75;;;3.20;;
65279;SDS011;51878;55.748;48.742;2024-03-23T10:20:20;4.70;;;3.00;;
65279;SDS011;51878;55.748;48.742;2024-03-23T10:25:25;6.45;;;3.45;;
65279;SDS011;51878;55.748;48.742;2024-03-23T10:30:27;5.32;;;3.42;;
65279;SDS011;51878;55.748;48.742;2024-03-23T10:35:29;6.00;;;3.88;;
65279;SDS011;51878;55.748;48.742;2024-03-23T10:40:31;8.18;;;3.33;;
65279;SDS011;51878;55.748;48.742;2024-03-23T10:45:35;4.75;;;3.50;;
65279;SDS011;51878;55.748;48.742;2024-03-23T10:50:36;4.93;;;3.63;;
65279;SDS011;51878;55.748;48.742;2024-03-23T10:55:37;5.03;;;2.97;;
65279;SDS011;51878;55.748;48.742;2024-03-23T11:00:40;5.45;;;3.72;;
65279;SDS011;51878;55.748;48.742;2024-03-23T11:05:49;10.43;;;3.92;;
65279;SDS011;51878;55.748;48.742;2024-03-23T11:10:50;6.80;;;3.50;;
65279;SDS011;51878;55.748;48.742;2024-03-23T11:15:51;6.75;;;3.13;;
65279;SDS011;51878;55.748;48.742;2024-03-23T11:20:53;6.47;;;3.67;;
65279;SDS011;51878;55.748;48.742;2024-03-23T11:25:54;5.93;;;3.40;;
65279;SDS011;51878;55.748;48.742;2024-03-23T11:30:55;4.97;;;3.28;;
65279;SDS011;51878;55.748;48.742;2024-03-23T11:35:57;5.53;;;2.90;;
65279;SDS011;51878;55.748;48.742;2024-03-23T11:40:58;7.00;;;3.58;;
65279;SDS011;51878;55.748;48.742;2024-03-23T11:46:03;5.05;;;3.10;;
65279;SDS011;51878;55.748;48.742;2024-03-23T11:51:05;7.30;;;3.45;;
65279;SDS011;51878;55.748;48.742;2024-03-23T11:56:07;6.35;;;3.50;;
65279;SDS011;51878;55.748;48.742;2024-03-23T12:01:10;4.43;;;3.03;;
65279;SDS011;51878;55.748;48.742;2024-03-23T12:06:11;5.30;;;3.70;;
65279;SDS011;51878;55.748;48.742;2024-03-23T12:11:14;5.03;;;2.95;;
65279;SDS011;51878;55.748;48.742;2024-03-23T12:16:17;4.43;;;3.10;;
65279;SDS011;51878;55.748;48.742;2024-03-23T12:21:23;5.43;;;3.50;;
65279;SDS011;51878;55.748;48.742;2024-03-23T12:26:24;4.10;;;3.05;;
65279;SDS011;51878;55.748;48.742;2024-03-23T12:31:25;5.35;;;3.00;;
65279;SDS011;51878;55.748;48.742;2024-03-23T12:36:27;5.32;;;2.83;;
65279;SDS011;51878;55.748;48.742;2024-03-23T12:41:28;4.40;;;3.05;;
65279;SDS011;51878;55.748;48.742;2024-03-23T12:46:29;3.63;;;2.67;;
65279;SDS011;51878;55.748;48.742;2024-03-23T12:51:30;3.53;;;2.30;;
65279;SDS011;51878;55.748;48.742;2024-03-23T12:56:35;3.92;;;2.60;;
65279;SDS011;51878;55.748;48.742;2024-03-23T13:01:36;4.32;;;2.55;;
65279;SDS011;51878;55.748;48.742;2024-03-23T13:06:37;5.60;;;3.17;;
65279;SDS011;51878;55.748;48.742;2024-03-23T13:11:39;6.55;;;3.00;;
65279;SDS011;51878;55.748;48.742;2024-03-23T13:16:40;3.05;;;2.30;;
65279;SDS011;51878;55.748;48.742;2024-03-23T13:21:41;4.60;;;2.65;;
65279;SDS011;51878;55.748;48.742;2024-03-23T13:26:43;6.88;;;3.00;;
65279;SDS011;51878;55.748;48.742;2024-03-23T13:31:44;7.88;;;2.80;;
65279;SDS011;51878;55.748;48.742;2024-03-23T13:36:47;3.33;;;2.05;;
65279;SDS011;51878;55.748;48.742;2024-03-23T13:41:48;3.47;;;2.30;;
65279;SDS011;51878;55.748;48.742;2024-03-23T13:46:49;4.90;;;2.60;;
65279;SDS011;51878;55.748;48.742;2024-03-23T13:51:51;4.90;;;2.42;;
65279;SDS011;51878;55.748;48.742;2024-03-23T13:56:52;5.40;;;2.88;;
65279;SDS011;51878;55.748;48.742;2024-03-23T14:01:55;7.65;;;3.80;;
65279;SDS011;51878;55.748;48.742;2024-03-23T14:06:57;4.63;;;2.10;;
65279;SDS011;51878;55.748;48.742;2024-03-23T14:11:58;5.00;;;2.28;;
65279;SDS011;51878;55.748;48.742;2024-03-23T14:17:00;5.53;;;2.50;;
65279;SDS011;51878;55.748;48.742;2024-03-23T14:22:02;4.80;;;2.38;;
65279;SDS011;51878;55.748;48.742;2024-03-23T14:27:03;3.25;;;2.15;;
65279;SDS011;51878;55.748;48.742;2024-03-23T14:32:06;7.78;;;2.13;;
65279;SDS011;51878;55.748;48.742;2024-03-23T14:37:07;2.55;;;1.88;;
65279;SDS011;51878;55.748;48.742;2024-03-23T14:42:08;3.22;;;1.73;;
65279;SDS011;51878;55.748;48.742;2024-03-23T14:47:10;3.63;;;2.33;;
65279;SDS011;51878;55.748;48.742;2024-03-23T14:52:11;2.38;;;1.70;;
65279;SDS011;51878;55.748;48.742;2024-03-23T14:57:12;3.05;;;1.88;;
65279;SDS011;51878;55.748;48.742;2024-03-23T15:02:14;6.68;;;2.40;;
65279;SDS011;51878;55.748;48.742;2024-03-23T15:07:15;2.92;;;1.70;;
65279;SDS011;51878;55.748;48.742;2024-03-23T15:12:17;3.78;;;1.58;;
65279;SDS011;51878;55.748;48.742;2024-03-23T15:17:18;2.78;;;1.77;;
65279;SDS011;51878;55.748;48.742;2024-03-23T15:22:22;2.83;;;1.70;;
65279;SDS011;51878;55.748;48.742;2024-03-23T15:27:23;3.85;;;2.13;;
65279;SDS011;51878;55.748;48.742;2024-03-23T15:32:24;2.42;;;1.27;;
65279;SDS011;51878;55.748;48.742;2024-03-23T15:37:26;1.17;;;1.08;;
65279;SDS011;51878;55.748;48.742;2024-03-23T15:42:27;3.08;;;1.60;;
65279;SDS011;51878;55.748;48.742;2024-03-23T15:47:28;2.13;;;1.55;;
65279;SDS011;51878;55.748;48.742;2024-03-23T15:52:30;3.42;;;2.00;;
65279;SDS011;51878;55.748;48.742;2024-03-23T15:57:32;2.30;;;1.73;;
65279;SDS011;51878;55.748;48.742;2024-03-23T16:02:34;3.33;;;1.60;;
65279;SDS011;51878;55.748;48.742;2024-03-23T16:07:35;2.60;;;1.80;;
65279;SDS011;51878;55.748;48.742;2024-03-23T16:12:37;2.53;;;1.85;;
65279;SDS011;51878;55.748;48.742;2024-03-23T16:17:39;5.97;;;1.98;;
65279;SDS011;51878;55.748;48.742;2024-03-23T16:22:41;4.07;;;2.00;;
65279;SDS011;51878;55.748;48.742;2024-03-23T16:27:43;4.28;;;1.70;;
65279;SDS011;51878;55.748;48.742;2024-03-23T16:32:44;3.50;;;2.05;;
65279;SDS011;51878;55.748;48.742;2024-03-23T16:37:46;2.20;;;1.55;;
65279;SDS011;51878;55.748;48.742;2024-03-23T16:42:48;2.95;;;1.95;;
65279;SDS011;51878;55.748;48.742;2024-03-23T16:47:49;4.10;;;2.17;;
65279;SDS011;51878;55.748;48.742;2024-03-23T16:52:51;4.40;;;1.88;;
65279;SDS011;51878;55.748;48.742;2024-03-23T16:57:52;2.90;;;1.80;;
65279;SDS011;51878;55.748;48.742;2024-03-23T17:02:54;4.05;;;2.78;;
65279;SDS011;51878;55.748;48.742;2024-03-23T17:07:55;3.72;;;2.58;;
65279;SDS011;51878;55.748;48.742;2024-03-23T17:12:57;3.90;;;1.77;;
65279;SDS011;51878;55.748;48.742;2024-03-23T17:17:58;6.38;;;2.45;;
65279;SDS011;51878;55.748;48.742;2024-03-23T17:22:59;4.57;;;3.15;;
65279;SDS011;51878;55.748;48.742;2024-03-23T17:28:01;6.45;;;2.80;;
65279;SDS011;51878;55.748;48.742;2024-03-23T17:33:03;7.22;;;3.10;;
65279;SDS011;51878;55.748;48.742;2024-03-23T17:38:05;3.70;;;2.45;;
65279;SDS011;51878;55.748;48.742;2024-03-23T17:43:06;8.00;;;3.35;;
65279;SDS011;51878;55.748;48.742;2024-03-23T17:48:07;5.60;;;3.08;;
65279;SDS011;51878;55.748;48.742;2024-03-23T17:53:09;7.63;;;3.15;;
65279;SDS011;51878;55.748;48.742;2024-03-23T17:58:10;6.55;;;4.50;;
65279;SDS011;51878;55.748;48.742;2024-03-23T18:03:11;5.60;;;3.97;;
65279;SDS011;51878;55.748;48.742;2024-03-23T18:08:13;11.32;;;4.32;;
65279;SDS011;51878;55.748;48.742;2024-03-23T18:13:14;5.32;;;3.97;;
65279;SDS011;51878;55.748;48.742;2024-03-23T18:18:16;10.48;;;5.00;;
65279;SDS011;51878;55.748;48.742;2024-03-23T18:23:17;6.15;;;4.32;;
65279;SDS011;51878;55.748;48.742;2024-03-23T18:28:19;5.57;;;3.72;;
65279;SDS011;51878;55.748;48.742;2024-03-23T18:33:20;11.50;;;4.75;;
65279;SDS011;51878;55.748;48.742;2024-03-23T18:38:21;9.57;;;4.35;;
65279;SDS011;51878;55.748;48.742;2024-03-23T18:43:22;7.72;;;4.82;;
65279;SDS011;51878;55.748;48.742;2024-03-23T18:48:24;7.15;;;4.10;;
65279;SDS011;51878;55.748;48.742;2024-03-23T18:53:25;5.40;;;3.92;;
65279;SDS011;51878;55.748;48.742;2024-03-23T18:58:26;5.78;;;3.47;;
65279;SDS011;51878;55.748;48.742;2024-03-23T19:03:28;4.82;;;3.65;;
65279;SDS011;51878;55.748;48.742;2024-03-23T19:08:29;9.35;;;4.15;;
65279;SDS011;51878;55.748;48.742;2024-03-23T19:13:32;8.35;;;4.70;;
65279;SDS011;51878;55.748;48.742;2024-03-23T19:18:34;5.20;;;3.20;;
65279;SDS011;51878;55.748;48.742;2024-03-23T19:23:35;5.95;;;3.60;;
65279;SDS011;51878;55.748;48.742;2024-03-23T19:28:36;4.43;;;3.13;;
65279;SDS011;51878;55.748;48.742;2024-03-23T19:33:37;9.65;;;4.00;;
65279;SDS011;51878;55.748;48.742;2024-03-23T19:38:39;8.77;;;4.32;;
65279;SDS011;51878;55.748;48.742;2024-03-23T19:43:40;7.10;;;4.32;;
65279;SDS011;51878;55.748;48.742;2024-03-23T19:48:41;6.25;;;4.05;;
65279;SDS011;51878;55.748;48.742;2024-03-23T19:53:43;4.47;;;2.55;;
65279;SDS011;51878;55.748;48.742;2024-03-23T19:58:44;7.85;;;4.35;;
65279;SDS011;51878;55.748;48.742;2024-03-23T20:03:47;5.05;;;3.83;;
65279;SDS011;51878;55.748;48.742;2024-03-23T20:08:50;9.80;;;5.22;;
65279;SDS011;51878;55.748;48.742;2024-03-23T20:13:51;9.43;;;4.38;;
65279;SDS011;51878;55.748;48.742;2024-03-23T20:18:53;11.10;;;4.60;;
65279;SDS011;51878;55.748;48.742;2024-03-23T20:23:55;8.80;;;4.53;;
65279;SDS011;51878;55.748;48.742;2024-03-23T20:28:56;6.75;;;3.85;;
65279;SDS011;51878;55.748;48.742;2024-03-23T20:34:00;7.88;;;4.55;;
65279;SDS011;51878;55.748;48.742;2024-03-23T20:39:02;8.07;;;5.32;;
65279;SDS011;51878;55.748;48.742;2024-03-23T20:44:06;21.90;;;4.50;;
65279;SDS011;51878;55.748;48.742;2024-03-23T20:49:08;8.85;;;4.82;;
65279;SDS011;51878;55.748;48.742;2024-03-23T20:54:11;6.43;;;4.28;;
65279;SDS011;51878;55.748;48.742;2024-03-23T20:59:16;8.68;;;6.35;;
65279;SDS011;51878;55.748;48.742;2024-03-23T21:04:18;5.30;;;3.92;;
65279;SDS011;51878;55.748;48.742;2024-03-23T21:09:19;9.50;;;6.03;;
65279;SDS011;51878;55.748;48.742;2024-03-23T21:14:20;13.00;;;5.22;;
65279;SDS011;51878;55.748;48.742;2024-03-23T21:19:24;9.75;;;5.47;;
65279;SDS011;51878;55.748;48.742;2024-03-23T21:24:25;5.80;;;4.30;;
65279;SDS011;51878;55.748;48.742;2024-03-23T21:29:27;7.07;;;4.88;;
65279;SDS011;51878;55.748;48.742;2024-03-23T21:34:28;7.38;;;4.90;;
65279;SDS011;51878;55.748;48.742;2024-03-23T21:39:30;9.95;;;7.97;;
65279;SDS011;51878;55.748;48.742;2024-03-23T21:44:40;7.63;;;5.47;;
65279;SDS011;51878;55.748;48.742;2024-03-23T21:49:41;6.22;;;4.65;;
65279;SDS011;51878;55.748;48.742;2024-03-23T21:54:42;14.45;;;6.82;;
65279;SDS011;51878;55.748;48.742;2024-03-23T21:59:44;5.95;;;4.60;;
65279;SDS011;51878;55.748;48.742;2024-03-23T22:04:45;6.82;;;4.65;;
65279;SDS011;51878;55.748;48.742;2024-03-23T22:09:47;5.60;;;4.13;;
65279;SDS011;51878;55.748;48.742;2024-03-23T22:14:48;10.65;;;5.25;;
65279;SDS011;51878;55.748;48.742;2024-03-23T22:19:49;7.90;;;5.35;;
65279;SDS011;51878;55.748;48.742;2024-03-23T22:24:50;13.13;;;5.25;;
65279;SDS011;51878;55.748;48.742;2024-03-23T22:29:52;6.15;;;4.90;;
65279;SDS011;51878;55.748;48.742;2024-03-23T22:34:53;9.02;;;6.05;;
65279;SDS011;51878;55.748;48.742;2024-03-23T22:39:54;11.82;;;7.50;;
65279;SDS011;51878;55.748;48.742;2024-03-23T22:44:55;8.32;;;6.55;;
65279;SDS011;51878;55.748;48.742;2024-03-23T22:49:57;9.02;;;6.32;;
65279;SDS011;51878;55.748;48.742;2024-03-23T22:54:58;9.07;;;6.75;;
65279;SDS011;51878;55.748;48.742;2024-03-23T22:59:59;10.80;;;6.72;;
65279;SDS011;51878;55.748;48.742;2024-03-23T23:05:01;8.50;;;5.20;;
65279;SDS011;51878;55.748;48.742;2024-03-23T23:10:04;7.80;;;5.03;;
65279;SDS011;51878;55.748;48.742;2024-03-23T23:15:06;7.32;;;5.10;;
65279;SDS011;51878;55.748;48.742;2024-03-23T23:20:07;6.90;;;4.93;;
65279;SDS011;51878;55.748;48.742;2024-03-23T23:25:10;10.40;;;8.00;;
65279;SDS011;51878;55.748;48.742;2024-03-23T23:30:12;6.30;;;5.00;;
65279;SDS011;51878;55.748;48.742;2024-03-23T23:35:13;8.90;;;5.80;;
65279;SDS011;51878;55.748;48.742;2024-03-23T23:40:14;9.20;;;6.75;;
65279;SDS011;51878;55.748;48.742;2024-03-23T23:45:15;7.88;;;5.72;;
65279;SDS011;51878;55.748;48.742;2024-03-23T23:50:18;11.48;;;7.22;;
65279;SDS011;51878;55.748;48.742;2024-03-23T23:55:20;10.68;;;4.97;;
